Relevés horaires Bouveret (Suisse)


Relevés horaires à Bouveret - Mardi 17 Févr. 2015
Heure UTC1 Température [°C] Vent [km/h] Hum. [%] Pres.4 [hPa] Visi. [Km] Nébu. [octa] Préc.5 [mm] Cond.
2m. Res. Ros. Dir.2 Vit. Moy. Raf.3
23:00 3.3 0.8 0.8 ONO 9.3 13.0 18.5 84 1037.5(0.9/3h) -- -- -- --
22:00 3.3 0 1.0 ONO 13.0 13.0 18.5 85 1037.3(1.1/3h) -- -- -- --
21:00 3.3 0.8 1.2 O 9.3 14.8 20.4 86 1036.9(1.6/3h) -- -- -- --
20:00 3.3 1.9 0.9 ONO 5.6 14.8 20.4 84 1036.6(2.1/3h) -- -- -- --
19:00 3.6 1.2 0.9 ONO 9.3 9.3 16.7 82 1036.1(2.6/3h) -- -- -- --
18:00 3.5 3.5 0.7 OSO 3.7 14.8 18.5 82 1035.2(1.9/3h) -- -- -- --
17:00 3.4 0.9 1.0 O 9.3 13.0 18.5 84 1034.4(1.3/3h) -- -- -- --
16:00 3.4 0.1 1.3 O 13.0 14.8 18.5 86 1033.4(0.5/3h) -- -- -- --
15:00 3.1 0.1 1.0 O 11.1 14.8 18.5 86 1033.3(0.5/3h) -- -- -- --
14:00 3.1 1.7 1.1 O 5.6 9.3 13.0 87 1033(0.5/3h) -- -- -- --
13:00 3.1 1.7 1.3 ONO 5.6 14.8 18.5 88 1032.9(1.2/3h) -- -- -- --
12:00 3.0 0 1.4 NO 11.1 13.0 18.5 89 1032.7(1.8/3h) -- -- -- --
11:00 3.0 0 1.6 NO 11.1 13.0 16.7 90 1032.5(2.4/3h) -- -- -- --
10:00 2.9 -0.1 1.5 NO 11.1 11.1 16.7 90 1031.7(2.8/3h) -- -- -- --
09:00 2.8 0.7 1.5 O 7.4 13.0 14.8 91 1030.9(3.0/3h) -- -- -- --
08:00 2.8 -0.2 1.6 ONO 11.1 11.1 14.8 92 1030.1(3.0/3h) -- -- -- --
07:00 2.8 0.7 1.4 ONO 7.4 7.4 11.1 90 1028.8(2.8/3h) -- -- -- --
06:00 2.7 2.7 1.2 ONO 3.7 13.0 16.7 90 1027.8(2.7/3h) -- -- -- --
05:00 2.6 -0 1.3 ONO 9.3 11.1 14.8 91 1027(2.1/3h) -- -- -- --
04:00 2.8 -0.6 1.7 ONO 13.0 13.0 16.7 92 1025.9(1.4/3h) -- -- -- --
03:00 3.0 1.6 1.6 ONO 5.6 9.3 13.0 90 1024.9(0.9/3h) -- -- -- --
02:00 3.0 1.6 1.6 OSO 5.6 5.6 9.3 90 1024.7(1.3/3h) -- -- -- --
01:00 3.0 1 1.8 ONO 7.4 9.3 13.0 92 1024.4(1.5/3h) -- -- -- --
00:00 3.1 1.7 1.3 SSO 5.6 7.4 13.0 88 1023.9(1.8/3h) -- -- -- --

1 Coordinated Universal Time. Actuellement il est 06:00 locale et 04:00 UTC.

2 Le vent souffle depuis la direction indiquée vers la direction oposée.

3 Les rafales max. sont disponible 40 min après l'heure du relevé.

4 Pour les stations d'altitude (plus de 600m) le géopotentiel du niveau le plus proche de la pression obligatoire est indiqué.

5 Les stations disposant d'un diffuseur peuvent indiquer "trace". Cela signifie que des précipitations ont touchés le sol mais que la quantité est inférieure à 0.1 mm.

Copyright

Les données affichées sur cette page sont la propriété exclusive de Météo Suisse.

Récapitulatif de la journée
Température [°C] Vent [km/h] Ensoleillement4 [h] Precipitations totale5 [mm] Pression [Hpa]
Min1 Max.2 Moy.3 Max. Min Max.
2.6 3.4 11.8 20.4 0 h 0 min 0 1023.9 1037.5

1 Température minimale relevée entre 18:00 UTC la veille et 18:00 UTC le jour donné.

2 Température maximale relevée entre 06:00 UTC le jour donné et 06:00 UTC le lendemain.

3 Vent moyen de la journée basé sur les relevés horaires.

4 Ensoleillement en heures relevé entre 06:00 UTC la veille et 06:00 UTC le jour donné.

5 Précipitations totales tombées entre 06:00 UTC la jour donné et 06:00 UTC le lendemain.

Graphiques horaires